sensor_id;sensor_type;location;lat;lon;timestamp;P1;durP1;ratioP1;P2;durP2;ratioP2
24337;SDS011;12457;50.832;4.346;2023-04-03T00:01:40;12.02;;;7.10;;
24337;SDS011;12457;50.832;4.346;2023-04-03T00:04:06;7.65;;;6.32;;
24337;SDS011;12457;50.832;4.346;2023-04-03T00:06:32;15.75;;;7.45;;
24337;SDS011;12457;50.832;4.346;2023-04-03T00:09:03;10.02;;;6.65;;
24337;SDS011;12457;50.832;4.346;2023-04-03T00:11:30;16.50;;;7.57;;
24337;SDS011;12457;50.832;4.346;2023-04-03T00:13:56;14.38;;;7.15;;
24337;SDS011;12457;50.832;4.346;2023-04-03T00:16:22;16.33;;;7.47;;
24337;SDS011;12457;50.832;4.346;2023-04-03T00:18:47;10.93;;;6.70;;
24337;SDS011;12457;50.832;4.346;2023-04-03T00:21:13;10.10;;;6.45;;
24337;SDS011;12457;50.832;4.346;2023-04-03T00:23:39;14.07;;;7.00;;
24337;SDS011;12457;50.832;4.346;2023-04-03T00:26:06;13.43;;;6.93;;
24337;SDS011;12457;50.832;4.346;2023-04-03T00:28:32;10.65;;;6.00;;
24337;SDS011;12457;50.832;4.346;2023-04-03T00:30:58;16.42;;;6.55;;
24337;SDS011;12457;50.832;4.346;2023-04-03T00:33:23;14.45;;;6.43;;
24337;SDS011;12457;50.832;4.346;2023-04-03T00:35:50;9.60;;;6.50;;
24337;SDS011;12457;50.832;4.346;2023-04-03T00:38:16;14.07;;;6.68;;
24337;SDS011;12457;50.832;4.346;2023-04-03T00:40:43;14.15;;;6.85;;
24337;SDS011;12457;50.832;4.346;2023-04-03T00:43:15;11.38;;;6.25;;
24337;SDS011;12457;50.832;4.346;2023-04-03T00:45:49;8.75;;;6.47;;
24337;SDS011;12457;50.832;4.346;2023-04-03T00:48:23;19.02;;;7.32;;
24337;SDS011;12457;50.832;4.346;2023-04-03T00:51:02;12.13;;;6.05;;
24337;SDS011;12457;50.832;4.346;2023-04-03T00:53:33;12.48;;;6.13;;
24337;SDS011;12457;50.832;4.346;2023-04-03T00:56:12;9.57;;;6.18;;
24337;SDS011;12457;50.832;4.346;2023-04-03T00:58:42;11.65;;;6.38;;
24337;SDS011;12457;50.832;4.346;2023-04-03T01:01:22;12.18;;;6.75;;
24337;SDS011;12457;50.832;4.346;2023-04-03T01:03:50;10.82;;;6.60;;
24337;SDS011;12457;50.832;4.346;2023-04-03T01:06:16;15.00;;;6.68;;
24337;SDS011;12457;50.832;4.346;2023-04-03T01:09:00;10.85;;;6.88;;
24337;SDS011;12457;50.832;4.346;2023-04-03T01:11:27;12.25;;;6.97;;
24337;SDS011;12457;50.832;4.346;2023-04-03T01:13:53;13.15;;;6.15;;
24337;SDS011;12457;50.832;4.346;2023-04-03T01:16:19;10.90;;;6.20;;
24337;SDS011;12457;50.832;4.346;2023-04-03T01:18:45;11.45;;;6.03;;
24337;SDS011;12457;50.832;4.346;2023-04-03T01:27:04;10.32;;;6.15;;
24337;SDS011;12457;50.832;4.346;2023-04-03T01:29:31;11.38;;;6.30;;
24337;SDS011;12457;50.832;4.346;2023-04-03T01:31:58;13.68;;;7.13;;
24337;SDS011;12457;50.832;4.346;2023-04-03T01:34:26;15.13;;;6.72;;
24337;SDS011;12457;50.832;4.346;2023-04-03T01:36:53;15.55;;;6.70;;
24337;SDS011;12457;50.832;4.346;2023-04-03T01:39:18;11.18;;;6.68;;
24337;SDS011;12457;50.832;4.346;2023-04-03T01:41:46;10.40;;;6.63;;
24337;SDS011;12457;50.832;4.346;2023-04-03T01:44:12;15.68;;;6.57;;
24337;SDS011;12457;50.832;4.346;2023-04-03T01:46:39;9.82;;;5.95;;
24337;SDS011;12457;50.832;4.346;2023-04-03T01:49:04;12.80;;;6.93;;
24337;SDS011;12457;50.832;4.346;2023-04-03T01:51:30;12.65;;;6.82;;
24337;SDS011;12457;50.832;4.346;2023-04-03T01:53:56;10.38;;;6.75;;
24337;SDS011;12457;50.832;4.346;2023-04-03T01:56:22;8.73;;;6.38;;
24337;SDS011;12457;50.832;4.346;2023-04-03T01:58:47;11.40;;;6.45;;
24337;SDS011;12457;50.832;4.346;2023-04-03T02:01:13;12.40;;;7.18;;
24337;SDS011;12457;50.832;4.346;2023-04-03T02:03:40;11.55;;;7.10;;
24337;SDS011;12457;50.832;4.346;2023-04-03T02:06:05;14.05;;;7.50;;
24337;SDS011;12457;50.832;4.346;2023-04-03T02:08:31;10.52;;;6.60;;
24337;SDS011;12457;50.832;4.346;2023-04-03T02:14:03;13.60;;;7.22;;
24337;SDS011;12457;50.832;4.346;2023-04-03T02:16:29;14.60;;;6.40;;
24337;SDS011;12457;50.832;4.346;2023-04-03T02:18:55;11.85;;;7.13;;
24337;SDS011;12457;50.832;4.346;2023-04-03T02:21:21;12.05;;;7.25;;
24337;SDS011;12457;50.832;4.346;2023-04-03T02:23:47;9.50;;;6.75;;
24337;SDS011;12457;50.832;4.346;2023-04-03T02:26:13;11.60;;;6.57;;
24337;SDS011;12457;50.832;4.346;2023-04-03T02:28:40;13.50;;;6.90;;
24337;SDS011;12457;50.832;4.346;2023-04-03T02:31:08;10.88;;;6.70;;
24337;SDS011;12457;50.832;4.346;2023-04-03T02:33:35;11.43;;;6.95;;
24337;SDS011;12457;50.832;4.346;2023-04-03T02:36:04;10.52;;;6.60;;
24337;SDS011;12457;50.832;4.346;2023-04-03T02:38:30;9.60;;;7.00;;
24337;SDS011;12457;50.832;4.346;2023-04-03T02:41:02;7.95;;;6.28;;
24337;SDS011;12457;50.832;4.346;2023-04-03T02:43:29;11.43;;;6.78;;
24337;SDS011;12457;50.832;4.346;2023-04-03T02:45:55;12.68;;;7.32;;
24337;SDS011;12457;50.832;4.346;2023-04-03T02:48:21;12.75;;;7.05;;
24337;SDS011;12457;50.832;4.346;2023-04-03T02:50:47;11.93;;;6.85;;
24337;SDS011;12457;50.832;4.346;2023-04-03T02:53:13;9.35;;;6.65;;
24337;SDS011;12457;50.832;4.346;2023-04-03T02:55:40;13.27;;;7.47;;
24337;SDS011;12457;50.832;4.346;2023-04-03T02:58:06;12.77;;;7.25;;
24337;SDS011;12457;50.832;4.346;2023-04-03T03:00:32;9.98;;;7.05;;
24337;SDS011;12457;50.832;4.346;2023-04-03T03:02:58;11.65;;;7.30;;
24337;SDS011;12457;50.832;4.346;2023-04-03T03:05:25;12.15;;;7.03;;
24337;SDS011;12457;50.832;4.346;2023-04-03T03:07:51;8.32;;;6.65;;
24337;SDS011;12457;50.832;4.346;2023-04-03T03:10:17;13.20;;;7.03;;
24337;SDS011;12457;50.832;4.346;2023-04-03T03:12:42;10.65;;;6.45;;
24337;SDS011;12457;50.832;4.346;2023-04-03T03:15:08;9.98;;;7.63;;
24337;SDS011;12457;50.832;4.346;2023-04-03T03:17:34;10.55;;;7.25;;
24337;SDS011;12457;50.832;4.346;2023-04-03T03:20:01;13.63;;;7.10;;
24337;SDS011;12457;50.832;4.346;2023-04-03T03:22:28;12.15;;;6.75;;
24337;SDS011;12457;50.832;4.346;2023-04-03T03:24:54;12.20;;;7.63;;
24337;SDS011;12457;50.832;4.346;2023-04-03T03:27:20;16.70;;;7.55;;
24337;SDS011;12457;50.832;4.346;2023-04-03T03:29:46;12.18;;;6.38;;
24337;SDS011;12457;50.832;4.346;2023-04-03T03:32:12;9.90;;;6.78;;
24337;SDS011;12457;50.832;4.346;2023-04-03T03:34:37;14.75;;;7.15;;
24337;SDS011;12457;50.832;4.346;2023-04-03T03:37:04;10.82;;;6.90;;
24337;SDS011;12457;50.832;4.346;2023-04-03T03:39:30;8.52;;;7.00;;
24337;SDS011;12457;50.832;4.346;2023-04-03T03:45:18;12.60;;;7.72;;
24337;SDS011;12457;50.832;4.346;2023-04-03T03:47:43;12.05;;;7.68;;
24337;SDS011;12457;50.832;4.346;2023-04-03T03:50:10;10.00;;;7.32;;
24337;SDS011;12457;50.832;4.346;2023-04-03T03:52:38;14.90;;;8.85;;
24337;SDS011;12457;50.832;4.346;2023-04-03T03:55:04;13.93;;;7.32;;
24337;SDS011;12457;50.832;4.346;2023-04-03T03:57:30;13.02;;;7.75;;
24337;SDS011;12457;50.832;4.346;2023-04-03T03:59:56;13.75;;;7.88;;
24337;SDS011;12457;50.832;4.346;2023-04-03T04:02:23;10.85;;;8.05;;
24337;SDS011;12457;50.832;4.346;2023-04-03T04:04:49;10.00;;;7.60;;
24337;SDS011;12457;50.832;4.346;2023-04-03T04:07:14;16.67;;;8.60;;
24337;SDS011;12457;50.832;4.346;2023-04-03T04:09:43;12.25;;;7.95;;
24337;SDS011;12457;50.832;4.346;2023-04-03T04:12:21;12.73;;;7.90;;
24337;SDS011;12457;50.832;4.346;2023-04-03T04:14:46;14.77;;;8.25;;
24337;SDS011;12457;50.832;4.346;2023-04-03T04:17:13;11.77;;;7.97;;
24337;SDS011;12457;50.832;4.346;2023-04-03T04:19:39;13.43;;;7.75;;
24337;SDS011;12457;50.832;4.346;2023-04-03T04:22:05;12.55;;;7.90;;
24337;SDS011;12457;50.832;4.346;2023-04-03T04:24:31;15.45;;;8.57;;
24337;SDS011;12457;50.832;4.346;2023-04-03T04:26:57;11.35;;;8.10;;
24337;SDS011;12457;50.832;4.346;2023-04-03T04:29:22;11.43;;;8.35;;
24337;SDS011;12457;50.832;4.346;2023-04-03T04:31:49;12.93;;;8.18;;
24337;SDS011;12457;50.832;4.346;2023-04-03T04:34:16;13.10;;;8.73;;
24337;SDS011;12457;50.832;4.346;2023-04-03T04:36:42;11.65;;;8.90;;
24337;SDS011;12457;50.832;4.346;2023-04-03T04:39:08;13.25;;;8.70;;
24337;SDS011;12457;50.832;4.346;2023-04-03T04:41:34;16.83;;;8.32;;
24337;SDS011;12457;50.832;4.346;2023-04-03T04:44:00;14.27;;;9.10;;
24337;SDS011;12457;50.832;4.346;2023-04-03T04:46:26;13.40;;;8.70;;
24337;SDS011;12457;50.832;4.346;2023-04-03T04:48:51;13.20;;;8.73;;
24337;SDS011;12457;50.832;4.346;2023-04-03T04:51:17;17.30;;;9.00;;
24337;SDS011;12457;50.832;4.346;2023-04-03T04:53:43;16.02;;;9.43;;
24337;SDS011;12457;50.832;4.346;2023-04-03T04:56:09;14.77;;;9.18;;
24337;SDS011;12457;50.832;4.346;2023-04-03T04:58:35;14.88;;;9.88;;
24337;SDS011;12457;50.832;4.346;2023-04-03T05:01:04;15.50;;;9.43;;
24337;SDS011;12457;50.832;4.346;2023-04-03T05:03:31;14.55;;;9.38;;
24337;SDS011;12457;50.832;4.346;2023-04-03T05:05:59;13.77;;;8.95;;
24337;SDS011;12457;50.832;4.346;2023-04-03T05:08:25;18.67;;;10.02;;
24337;SDS011;12457;50.832;4.346;2023-04-03T05:10:52;18.85;;;10.13;;
24337;SDS011;12457;50.832;4.346;2023-04-03T05:13:19;14.25;;;9.63;;
24337;SDS011;12457;50.832;4.346;2023-04-03T05:15:45;17.45;;;9.85;;
24337;SDS011;12457;50.832;4.346;2023-04-03T05:18:12;15.07;;;10.32;;
24337;SDS011;12457;50.832;4.346;2023-04-03T05:20:39;16.13;;;9.75;;
24337;SDS011;12457;50.832;4.346;2023-04-03T05:23:05;15.70;;;9.93;;
24337;SDS011;12457;50.832;4.346;2023-04-03T05:25:31;16.05;;;10.00;;
24337;SDS011;12457;50.832;4.346;2023-04-03T05:28:01;14.55;;;10.02;;
24337;SDS011;12457;50.832;4.346;2023-04-03T05:30:26;15.65;;;10.48;;
24337;SDS011;12457;50.832;4.346;2023-04-03T05:32:52;14.30;;;9.55;;
24337;SDS011;12457;50.832;4.346;2023-04-03T05:35:18;15.80;;;10.45;;
24337;SDS011;12457;50.832;4.346;2023-04-03T05:37:43;16.88;;;10.48;;
24337;SDS011;12457;50.832;4.346;2023-04-03T05:40:10;17.10;;;11.00;;
24337;SDS011;12457;50.832;4.346;2023-04-03T05:42:38;14.68;;;10.27;;
24337;SDS011;12457;50.832;4.346;2023-04-03T05:45:04;14.63;;;10.18;;
24337;SDS011;12457;50.832;4.346;2023-04-03T05:47:30;21.02;;;10.07;;
24337;SDS011;12457;50.832;4.346;2023-04-03T05:49:56;17.02;;;9.80;;
24337;SDS011;12457;50.832;4.346;2023-04-03T05:54:50;17.85;;;9.35;;
24337;SDS011;12457;50.832;4.346;2023-04-03T05:57:16;12.02;;;8.85;;
24337;SDS011;12457;50.832;4.346;2023-04-03T05:59:43;12.05;;;7.93;;
24337;SDS011;12457;50.832;4.346;2023-04-03T06:02:11;10.85;;;7.90;;
24337;SDS011;12457;50.832;4.346;2023-04-03T06:04:38;16.20;;;8.68;;
24337;SDS011;12457;50.832;4.346;2023-04-03T06:07:05;11.75;;;8.20;;
24337;SDS011;12457;50.832;4.346;2023-04-03T06:09:32;13.25;;;7.97;;
24337;SDS011;12457;50.832;4.346;2023-04-03T06:12:00;13.75;;;8.80;;
24337;SDS011;12457;50.832;4.346;2023-04-03T06:14:27;11.27;;;8.27;;
24337;SDS011;12457;50.832;4.346;2023-04-03T06:16:53;14.90;;;8.43;;
24337;SDS011;12457;50.832;4.346;2023-04-03T06:19:19;26.67;;;9.18;;
24337;SDS011;12457;50.832;4.346;2023-04-03T06:21:45;16.63;;;8.70;;
24337;SDS011;12457;50.832;4.346;2023-04-03T06:24:14;11.30;;;8.10;;
24337;SDS011;12457;50.832;4.346;2023-04-03T06:26:41;13.65;;;9.10;;
24337;SDS011;12457;50.832;4.346;2023-04-03T06:29:07;18.27;;;9.70;;
24337;SDS011;12457;50.832;4.346;2023-04-03T06:31:34;15.68;;;9.60;;
24337;SDS011;12457;50.832;4.346;2023-04-03T06:34:02;21.23;;;10.23;;
24337;SDS011;12457;50.832;4.346;2023-04-03T06:36:28;21.83;;;8.98;;
24337;SDS011;12457;50.832;4.346;2023-04-03T06:38:54;13.38;;;9.38;;
24337;SDS011;12457;50.832;4.346;2023-04-03T06:41:21;13.63;;;9.55;;
24337;SDS011;12457;50.832;4.346;2023-04-03T06:43:46;21.08;;;9.75;;
24337;SDS011;12457;50.832;4.346;2023-04-03T06:46:15;14.25;;;9.93;;
24337;SDS011;12457;50.832;4.346;2023-04-03T06:48:43;18.90;;;10.05;;
24337;SDS011;12457;50.832;4.346;2023-04-03T06:51:19;15.30;;;9.70;;
24337;SDS011;12457;50.832;4.346;2023-04-03T06:53:46;18.08;;;10.18;;
24337;SDS011;12457;50.832;4.346;2023-04-03T06:56:13;15.15;;;9.93;;
24337;SDS011;12457;50.832;4.346;2023-04-03T06:58:41;18.80;;;10.57;;
24337;SDS011;12457;50.832;4.346;2023-04-03T07:01:08;18.48;;;12.00;;
24337;SDS011;12457;50.832;4.346;2023-04-03T07:03:38;16.35;;;10.30;;
24337;SDS011;12457;50.832;4.346;2023-04-03T07:06:05;14.90;;;10.02;;
24337;SDS011;12457;50.832;4.346;2023-04-03T07:08:32;13.20;;;10.20;;
24337;SDS011;12457;50.832;4.346;2023-04-03T07:10:58;17.02;;;10.77;;
24337;SDS011;12457;50.832;4.346;2023-04-03T07:13:24;21.15;;;10.80;;
24337;SDS011;12457;50.832;4.346;2023-04-03T07:15:50;16.23;;;10.38;;
24337;SDS011;12457;50.832;4.346;2023-04-03T07:18:16;18.33;;;11.18;;
24337;SDS011;12457;50.832;4.346;2023-04-03T07:20:42;18.13;;;11.02;;
24337;SDS011;12457;50.832;4.346;2023-04-03T07:23:08;17.38;;;11.02;;
24337;SDS011;12457;50.832;4.346;2023-04-03T07:25:35;17.23;;;9.85;;
24337;SDS011;12457;50.832;4.346;2023-04-03T07:28:01;15.70;;;9.95;;
24337;SDS011;12457;50.832;4.346;2023-04-03T07:30:27;15.70;;;10.65;;
24337;SDS011;12457;50.832;4.346;2023-04-03T07:32:52;14.13;;;9.75;;
24337;SDS011;12457;50.832;4.346;2023-04-03T07:35:18;21.90;;;10.88;;
24337;SDS011;12457;50.832;4.346;2023-04-03T07:37:44;21.17;;;11.13;;
24337;SDS011;12457;50.832;4.346;2023-04-03T07:40:10;16.83;;;10.52;;
24337;SDS011;12457;50.832;4.346;2023-04-03T07:42:36;15.20;;;10.15;;
24337;SDS011;12457;50.832;4.346;2023-04-03T07:45:02;20.10;;;9.95;;
24337;SDS011;12457;50.832;4.346;2023-04-03T07:47:29;10.55;;;9.15;;
24337;SDS011;12457;50.832;4.346;2023-04-03T07:49:56;10.68;;;8.77;;
24337;SDS011;12457;50.832;4.346;2023-04-03T07:52:22;12.07;;;8.57;;
24337;SDS011;12457;50.832;4.346;2023-04-03T07:54:51;14.18;;;8.68;;
24337;SDS011;12457;50.832;4.346;2023-04-03T07:57:17;12.88;;;8.88;;
24337;SDS011;12457;50.832;4.346;2023-04-03T07:59:43;15.80;;;8.40;;
24337;SDS011;12457;50.832;4.346;2023-04-03T08:02:10;12.60;;;8.07;;
24337;SDS011;12457;50.832;4.346;2023-04-03T08:04:36;11.60;;;8.85;;
24337;SDS011;12457;50.832;4.346;2023-04-03T08:07:02;11.20;;;7.43;;
24337;SDS011;12457;50.832;4.346;2023-04-03T08:09:27;11.02;;;8.13;;
24337;SDS011;12457;50.832;4.346;2023-04-03T08:11:53;12.57;;;8.77;;
24337;SDS011;12457;50.832;4.346;2023-04-03T08:14:25;15.55;;;9.07;;
24337;SDS011;12457;50.832;4.346;2023-04-03T08:16:51;18.02;;;8.90;;
24337;SDS011;12457;50.832;4.346;2023-04-03T08:19:17;14.63;;;8.07;;
24337;SDS011;12457;50.832;4.346;2023-04-03T08:21:43;10.95;;;7.63;;
24337;SDS011;12457;50.832;4.346;2023-04-03T08:24:10;11.90;;;8.07;;
24337;SDS011;12457;50.832;4.346;2023-04-03T08:26:37;15.50;;;7.97;;
24337;SDS011;12457;50.832;4.346;2023-04-03T08:29:03;11.93;;;7.55;;
24337;SDS011;12457;50.832;4.346;2023-04-03T08:31:29;13.48;;;8.27;;
24337;SDS011;12457;50.832;4.346;2023-04-03T08:33:56;19.20;;;8.68;;
24337;SDS011;12457;50.832;4.346;2023-04-03T08:36:27;10.07;;;7.20;;
24337;SDS011;12457;50.832;4.346;2023-04-03T08:38:54;10.52;;;7.32;;
24337;SDS011;12457;50.832;4.346;2023-04-03T08:41:29;11.25;;;7.55;;
24337;SDS011;12457;50.832;4.346;2023-04-03T08:49:56;10.60;;;6.90;;
24337;SDS011;12457;50.832;4.346;2023-04-03T08:52:38;11.18;;;7.22;;
24337;SDS011;12457;50.832;4.346;2023-04-03T08:55:20;14.43;;;6.57;;
24337;SDS011;12457;50.832;4.346;2023-04-03T08:58:00;9.68;;;5.95;;
24337;SDS011;12457;50.832;4.346;2023-04-03T09:03:17;9.68;;;5.60;;
24337;SDS011;12457;50.832;4.346;2023-04-03T09:08:27;9.93;;;5.85;;
24337;SDS011;12457;50.832;4.346;2023-04-03T09:11:13;10.05;;;5.55;;
24337;SDS011;12457;50.832;4.346;2023-04-03T09:18:56;9.93;;;5.25;;
24337;SDS011;12457;50.832;4.346;2023-04-03T09:21:34;8.50;;;4.93;;
24337;SDS011;12457;50.832;4.346;2023-04-03T09:24:06;8.40;;;4.25;;
24337;SDS011;12457;50.832;4.346;2023-04-03T09:26:56;8.93;;;4.47;;
24337;SDS011;12457;50.832;4.346;2023-04-03T09:29:24;6.70;;;3.50;;
24337;SDS011;12457;50.832;4.346;2023-04-03T09:31:57;5.32;;;4.00;;
24337;SDS011;12457;50.832;4.346;2023-04-03T09:34:28;7.85;;;3.70;;
24337;SDS011;12457;50.832;4.346;2023-04-03T09:36:59;8.88;;;4.07;;
24337;SDS011;12457;50.832;4.346;2023-04-03T09:39:31;6.60;;;3.87;;
24337;SDS011;12457;50.832;4.346;2023-04-03T09:44:55;4.82;;;3.70;;
24337;SDS011;12457;50.832;4.346;2023-04-03T09:47:29;9.15;;;4.00;;
24337;SDS011;12457;50.832;4.346;2023-04-03T09:52:45;6.32;;;3.45;;
24337;SDS011;12457;50.832;4.346;2023-04-03T09:55:23;8.45;;;3.28;;
24337;SDS011;12457;50.832;4.346;2023-04-03T09:57:55;7.22;;;3.42;;
24337;SDS011;12457;50.832;4.346;2023-04-03T10:00:28;8.30;;;3.42;;
24337;SDS011;12457;50.832;4.346;2023-04-03T10:03:04;10.30;;;3.63;;
24337;SDS011;12457;50.832;4.346;2023-04-03T10:10:43;5.38;;;2.45;;
24337;SDS011;12457;50.832;4.346;2023-04-03T10:13:16;5.57;;;2.80;;
24337;SDS011;12457;50.832;4.346;2023-04-03T10:18:44;8.00;;;3.03;;
24337;SDS011;12457;50.832;4.346;2023-04-03T10:24:10;3.97;;;2.25;;
24337;SDS011;12457;50.832;4.346;2023-04-03T10:34:43;6.00;;;2.85;;
24337;SDS011;12457;50.832;4.346;2023-04-03T10:37:27;5.47;;;2.83;;
24337;SDS011;12457;50.832;4.346;2023-04-03T10:42:59;4.72;;;2.88;;
24337;SDS011;12457;50.832;4.346;2023-04-03T10:45:49;4.10;;;2.67;;
24337;SDS011;12457;50.832;4.346;2023-04-03T10:51:29;5.95;;;2.40;;
24337;SDS011;12457;50.832;4.346;2023-04-03T10:57:04;4.75;;;2.47;;
24337;SDS011;12457;50.832;4.346;2023-04-03T10:59:35;7.97;;;2.83;;
24337;SDS011;12457;50.832;4.346;2023-04-03T11:02:14;6.78;;;2.53;;
24337;SDS011;12457;50.832;4.346;2023-04-03T11:04:51;5.05;;;2.67;;
24337;SDS011;12457;50.832;4.346;2023-04-03T11:07:26;5.93;;;2.13;;
24337;SDS011;12457;50.832;4.346;2023-04-03T11:10:00;4.13;;;2.22;;
24337;SDS011;12457;50.832;4.346;2023-04-03T11:12:51;4.65;;;2.22;;
24337;SDS011;12457;50.832;4.346;2023-04-03T11:15:23;7.82;;;1.95;;
24337;SDS011;12457;50.832;4.346;2023-04-03T11:18:03;5.82;;;2.40;;
24337;SDS011;12457;50.832;4.346;2023-04-03T11:20:36;6.43;;;2.45;;
24337;SDS011;12457;50.832;4.346;2023-04-03T11:23:03;5.07;;;2.25;;
24337;SDS011;12457;50.832;4.346;2023-04-03T11:25:46;4.60;;;2.10;;
24337;SDS011;12457;50.832;4.346;2023-04-03T11:28:17;4.70;;;2.08;;
24337;SDS011;12457;50.832;4.346;2023-04-03T11:30:47;4.97;;;2.17;;
24337;SDS011;12457;50.832;4.346;2023-04-03T11:33:45;3.88;;;1.83;;
24337;SDS011;12457;50.832;4.346;2023-04-03T11:36:51;7.72;;;2.53;;
24337;SDS011;12457;50.832;4.346;2023-04-03T11:41:53;4.22;;;2.22;;
24337;SDS011;12457;50.832;4.346;2023-04-03T11:44:29;7.20;;;2.75;;
24337;SDS011;12457;50.832;4.346;2023-04-03T11:46:59;11.48;;;2.28;;
24337;SDS011;12457;50.832;4.346;2023-04-03T12:16:30;2.90;;;1.80;;
24337;SDS011;12457;50.832;4.346;2023-04-03T12:19:48;4.95;;;1.80;;
24337;SDS011;12457;50.832;4.346;2023-04-03T12:24:27;5.82;;;1.98;;
24337;SDS011;12457;50.832;4.346;2023-04-03T12:29:27;4.38;;;1.88;;
24337;SDS011;12457;50.832;4.346;2023-04-03T12:34:49;4.72;;;2.13;;
24337;SDS011;12457;50.832;4.346;2023-04-03T12:40:42;2.65;;;1.70;;
24337;SDS011;12457;50.832;4.346;2023-04-03T12:46:37;8.38;;;2.05;;
24337;SDS011;12457;50.832;4.346;2023-04-03T12:51:58;3.10;;;1.67;;
24337;SDS011;12457;50.832;4.346;2023-04-03T12:54:32;2.17;;;1.60;;
24337;SDS011;12457;50.832;4.346;2023-04-03T12:57:21;4.72;;;2.10;;
24337;SDS011;12457;50.832;4.346;2023-04-03T12:59:51;3.65;;;1.90;;
24337;SDS011;12457;50.832;4.346;2023-04-03T13:04:49;4.57;;;1.98;;
24337;SDS011;12457;50.832;4.346;2023-04-03T13:07:21;5.65;;;1.95;;
24337;SDS011;12457;50.832;4.346;2023-04-03T13:12:54;7.93;;;2.25;;
24337;SDS011;12457;50.832;4.346;2023-04-03T13:15:23;3.45;;;1.50;;
24337;SDS011;12457;50.832;4.346;2023-04-03T13:17:50;3.08;;;1.70;;
24337;SDS011;12457;50.832;4.346;2023-04-03T13:20:20;5.50;;;1.90;;
24337;SDS011;12457;50.832;4.346;2023-04-03T13:23:07;5.72;;;1.80;;
24337;SDS011;12457;50.832;4.346;2023-04-03T13:25:36;4.75;;;1.85;;
24337;SDS011;12457;50.832;4.346;2023-04-03T13:28:05;6.00;;;1.60;;
24337;SDS011;12457;50.832;4.346;2023-04-03T13:30:33;3.95;;;1.65;;
24337;SDS011;12457;50.832;4.346;2023-04-03T13:33:05;3.08;;;1.80;;
24337;SDS011;12457;50.832;4.346;2023-04-03T13:39:05;8.48;;;1.80;;
24337;SDS011;12457;50.832;4.346;2023-04-03T13:41:53;2.60;;;1.63;;
24337;SDS011;12457;50.832;4.346;2023-04-03T13:44:28;2.75;;;1.60;;
24337;SDS011;12457;50.832;4.346;2023-04-03T13:47:21;7.32;;;2.05;;
24337;SDS011;12457;50.832;4.346;2023-04-03T13:49:58;2.88;;;1.73;;
24337;SDS011;12457;50.832;4.346;2023-04-03T13:52:41;3.17;;;2.00;;
24337;SDS011;12457;50.832;4.346;2023-04-03T13:55:17;3.58;;;1.88;;
24337;SDS011;12457;50.832;4.346;2023-04-03T13:58:18;3.63;;;2.08;;
24337;SDS011;12457;50.832;4.346;2023-04-03T14:00:53;4.55;;;2.20;;
24337;SDS011;12457;50.832;4.346;2023-04-03T14:03:28;20.60;;;2.30;;
24337;SDS011;12457;50.832;4.346;2023-04-03T14:05:56;6.90;;;1.98;;
24337;SDS011;12457;50.832;4.346;2023-04-03T14:08:23;5.47;;;2.08;;
24337;SDS011;12457;50.832;4.346;2023-04-03T14:10:49;4.03;;;1.95;;
24337;SDS011;12457;50.832;4.346;2023-04-03T14:13:17;2.00;;;1.70;;
24337;SDS011;12457;50.832;4.346;2023-04-03T14:15:46;5.38;;;1.98;;
24337;SDS011;12457;50.832;4.346;2023-04-03T14:18:14;8.90;;;2.30;;
24337;SDS011;12457;50.832;4.346;2023-04-03T14:20:41;3.63;;;2.28;;
24337;SDS011;12457;50.832;4.346;2023-04-03T14:23:07;6.78;;;2.03;;
24337;SDS011;12457;50.832;4.346;2023-04-03T14:25:33;3.67;;;1.77;;
24337;SDS011;12457;50.832;4.346;2023-04-03T14:28:01;4.15;;;1.98;;
24337;SDS011;12457;50.832;4.346;2023-04-03T14:30:38;5.15;;;2.25;;
24337;SDS011;12457;50.832;4.346;2023-04-03T14:33:03;4.60;;;1.70;;
24337;SDS011;12457;50.832;4.346;2023-04-03T14:35:31;3.20;;;1.90;;
24337;SDS011;12457;50.832;4.346;2023-04-03T14:37:58;5.13;;;1.92;;
24337;SDS011;12457;50.832;4.346;2023-04-03T14:40:25;3.50;;;2.10;;
24337;SDS011;12457;50.832;4.346;2023-04-03T14:42:53;4.00;;;1.85;;
24337;SDS011;12457;50.832;4.346;2023-04-03T14:45:20;4.72;;;2.20;;
24337;SDS011;12457;50.832;4.346;2023-04-03T14:47:47;5.25;;;1.88;;
24337;SDS011;12457;50.832;4.346;2023-04-03T14:50:18;6.72;;;1.95;;
24337;SDS011;12457;50.832;4.346;2023-04-03T14:52:46;4.85;;;1.80;;
24337;SDS011;12457;50.832;4.346;2023-04-03T14:55:17;4.10;;;1.90;;
24337;SDS011;12457;50.832;4.346;2023-04-03T14:57:45;3.45;;;1.60;;
24337;SDS011;12457;50.832;4.346;2023-04-03T15:00:12;5.15;;;1.85;;
24337;SDS011;12457;50.832;4.346;2023-04-03T15:02:40;4.30;;;1.70;;
24337;SDS011;12457;50.832;4.346;2023-04-03T15:05:07;5.00;;;1.85;;
24337;SDS011;12457;50.832;4.346;2023-04-03T15:07:39;2.25;;;1.70;;
24337;SDS011;12457;50.832;4.346;2023-04-03T15:10:14;3.55;;;1.83;;
24337;SDS011;12457;50.832;4.346;2023-04-03T15:12:42;4.80;;;2.13;;
24337;SDS011;12457;50.832;4.346;2023-04-03T15:15:09;3.35;;;1.50;;
24337;SDS011;12457;50.832;4.346;2023-04-03T15:17:36;3.60;;;1.77;;
24337;SDS011;12457;50.832;4.346;2023-04-03T15:20:14;3.67;;;1.75;;
24337;SDS011;12457;50.832;4.346;2023-04-03T15:22:42;4.38;;;1.50;;
24337;SDS011;12457;50.832;4.346;2023-04-03T15:25:09;2.90;;;1.85;;
24337;SDS011;12457;50.832;4.346;2023-04-03T15:27:35;2.80;;;1.50;;
24337;SDS011;12457;50.832;4.346;2023-04-03T15:30:03;2.35;;;1.52;;
24337;SDS011;12457;50.832;4.346;2023-04-03T15:32:30;3.30;;;1.50;;
24337;SDS011;12457;50.832;4.346;2023-04-03T15:34:56;3.80;;;1.88;;
24337;SDS011;12457;50.832;4.346;2023-04-03T15:37:22;4.18;;;1.92;;
24337;SDS011;12457;50.832;4.346;2023-04-03T15:39:47;4.13;;;2.05;;
24337;SDS011;12457;50.832;4.346;2023-04-03T15:42:13;4.63;;;1.98;;
24337;SDS011;12457;50.832;4.346;2023-04-03T15:44:39;4.85;;;1.58;;
24337;SDS011;12457;50.832;4.346;2023-04-03T15:47:06;3.80;;;2.08;;
24337;SDS011;12457;50.832;4.346;2023-04-03T15:49:32;5.88;;;1.77;;
24337;SDS011;12457;50.832;4.346;2023-04-03T15:51:58;3.67;;;2.10;;
24337;SDS011;12457;50.832;4.346;2023-04-03T15:54:24;2.13;;;1.67;;
24337;SDS011;12457;50.832;4.346;2023-04-03T15:56:51;3.85;;;1.67;;
24337;SDS011;12457;50.832;4.346;2023-04-03T15:59:17;4.88;;;1.98;;
24337;SDS011;12457;50.832;4.346;2023-04-03T16:01:43;4.72;;;2.42;;
24337;SDS011;12457;50.832;4.346;2023-04-03T16:04:10;4.18;;;2.20;;
24337;SDS011;12457;50.832;4.346;2023-04-03T16:06:38;5.13;;;2.08;;
24337;SDS011;12457;50.832;4.346;2023-04-03T16:09:04;5.85;;;2.45;;
24337;SDS011;12457;50.832;4.346;2023-04-03T16:11:31;5.82;;;2.58;;
24337;SDS011;12457;50.832;4.346;2023-04-03T16:13:57;7.75;;;2.70;;
24337;SDS011;12457;50.832;4.346;2023-04-03T16:16:23;5.45;;;2.03;;
24337;SDS011;12457;50.832;4.346;2023-04-03T16:19:01;3.80;;;2.15;;
24337;SDS011;12457;50.832;4.346;2023-04-03T16:21:27;4.95;;;2.60;;
24337;SDS011;12457;50.832;4.346;2023-04-03T16:23:55;5.80;;;2.30;;
24337;SDS011;12457;50.832;4.346;2023-04-03T16:26:25;4.10;;;1.90;;
24337;SDS011;12457;50.832;4.346;2023-04-03T16:28:52;5.38;;;2.15;;
24337;SDS011;12457;50.832;4.346;2023-04-03T16:31:19;6.95;;;2.75;;
24337;SDS011;12457;50.832;4.346;2023-04-03T16:37:05;4.80;;;2.95;;
24337;SDS011;12457;50.832;4.346;2023-04-03T16:39:33;5.07;;;1.90;;
24337;SDS011;12457;50.832;4.346;2023-04-03T16:42:00;7.43;;;2.20;;
24337;SDS011;12457;50.832;4.346;2023-04-03T16:44:26;4.95;;;2.20;;
24337;SDS011;12457;50.832;4.346;2023-04-03T16:46:52;9.02;;;2.90;;
24337;SDS011;12457;50.832;4.346;2023-04-03T16:49:17;3.83;;;2.33;;
24337;SDS011;12457;50.832;4.346;2023-04-03T16:51:43;7.43;;;2.17;;
24337;SDS011;12457;50.832;4.346;2023-04-03T16:54:10;6.43;;;2.70;;